Douglass, Kansas
Current Conditions -  °F | °C
As of 1:58 AM on Tuesday 21 Oct 2014 (Local Time) from KIAB Reporting Station
Clear Clear  
Wind Chill: 56°   Ceiling: Unl
Heat Index: 56°   Visibility: 10mi
Dew Point: 47°   Wind: 5mph
Humidity: 72%   Direction: 60°ENE
Pressure: 30.08"   Gusts: NA
Location:  37.52°N, 97.01°W
Report Text: KIAB 210658Z AUTO 06004KT 10SM CLR 14/09 A3008 RMK AO2 SLP181 T01350086
Loading
Personal Weather Stations






























Interactive Weather Map
Tropical Storm Tracking
New forecast layout! Learn more

10-Day Weather Forecast

Advertisements
Track Severe Weather on mobile